Terminal Aerodrome Forecast
Issued by NWS

Home | Current Version | Previous Version | Text Only | Print | Product List | Glossary On
Versions: 1 2 3 4 5 6 7 8 9 10 11 12 13 14 15
398
FTUS43 KIND 261122
TAFHUF
TAF
KHUF 261122Z 2612/2712 16003KT P6SM FEW250
     FM261400 17008KT P6SM SCT250
     FM261700 19012KT P6SM BKN200
     FM270000 19007KT P6SM BKN080=

USA.gov is the U.S. government's official web portal to all federal, state and local government web resources and services.